»·PEaware :: FDX5954 KLAS-KONT

FDX5954 :: KLAS-KONT

FLIGHT INFORMATION

Flight Status: Arrived
Operator:
Federal Express
More flights by this operator :: More flights under this callsign
Pilot: Joshua M. (19482)
Aircraft: BOEING 737-800
(B738)
More flights by this aircraft type
Origin: KLAS McCarran Intl
United States
Destination: KONT Ontario Intl
United States
More flights between these airports :: More routes between these airports
Route: +BOACH8 HEC ZIGGY7
File this flight plan on PilotEdge
Remarks: Outdated FMC Default XPlane
Altitude:
(Current/Filed)
19,000ft
Speed:
(Current/Filed)
450kts
Departed: 17-Jul-18 07:27 PM
Arrived: 17-Jul-18 08:14 PM
Distance/Time
Traveled:
171nm/0:47
Distance/Time
To Go:
Arrived

Flight Plot

Page will automatically refresh every two minutes.

Flight plan parsing failed; only flown route is shown


Map Options




Map Legend


Flown Route
Filed Route
Departure Airport
Arrival Airport
Navaid (VOR, NDB)
Fix

Horizontal Profiles

Position Reports

Time Latitude Longitude Heading Altitude Ground
Speed
17-Jul-18 19:11 36.080158 -115.125594 89 2189ft 0kts
17-Jul-18 19:12 36.080158 -115.125594 89 2189ft 0kts
17-Jul-18 19:13 36.080158 -115.125594 89 2189ft 0kts
17-Jul-18 19:14 36.080158 -115.125594 89 2189ft 0kts
17-Jul-18 19:15 36.080158 -115.125594 89 2189ft 0kts
17-Jul-18 19:16 36.080158 -115.125594 89 2189ft 0kts
17-Jul-18 19:17 36.080158 -115.125594 89 2189ft 0kts
17-Jul-18 19:18 36.080158 -115.125594 89 2189ft 0kts
17-Jul-18 19:19 36.080153 -115.126015 89 2189ft 2kts
17-Jul-18 19:20 36.080144 -115.126622 89 2189ft 1kts
17-Jul-18 19:21 36.080144 -115.126668 89 2189ft 0kts
17-Jul-18 19:22 36.080104 -115.126562 130 2189ft 1kts
17-Jul-18 19:23 36.079224 -115.126424 175 2189ft 6kts
17-Jul-18 19:24 36.078299 -115.124365 93 2189ft 11kts
17-Jul-18 19:25 36.077520 -115.121568 130 2189ft 2kts
17-Jul-18 19:26 36.077468 -115.121495 133 2189ft 0kts
17-Jul-18 19:27 36.076586 -115.121494 236 2189ft 1kts
17-Jul-18 19:28 36.076419 -115.131164 269 2190ft 126kts
17-Jul-18 19:29 36.076148 -115.183378 267 2947ft 230kts
17-Jul-18 19:30 36.061688 -115.253705 212 5745ft 231kts
17-Jul-18 19:31 36.014311 -115.280190 200 7003ft 238kts
17-Jul-18 19:32 35.956809 -115.302359 184 9045ft 239kts
17-Jul-18 19:33 35.898308 -115.309967 183 10174ft 287kts
17-Jul-18 19:34 35.817756 -115.310102 173 12362ft 304kts
17-Jul-18 19:35 35.733592 -115.300874 173 14608ft 316kts
17-Jul-18 19:36 35.652688 -115.332208 225 16583ft 329kts
17-Jul-18 19:37 35.590362 -115.413202 228 18567ft 337kts
17-Jul-18 19:38 35.526035 -115.499316 228 20215ft 366kts
17-Jul-18 19:39 35.459605 -115.588242 228 20264ft 361kts
17-Jul-18 19:40 35.393099 -115.677048 228 20369ft 344kts
17-Jul-18 19:41 35.326797 -115.765374 227 20231ft 366kts
17-Jul-18 19:42 35.258916 -115.855534 228 20254ft 345kts
17-Jul-18 19:43 35.192508 -115.943568 228 20137ft 365kts
17-Jul-18 19:44 35.126781 -116.030433 228 19953ft 362kts
17-Jul-18 19:45 35.059090 -116.119655 227 19945ft 364kts
17-Jul-18 19:46 34.991170 -116.209183 225 19952ft 369kts
17-Jul-18 19:47 34.929167 -116.290305 225 19947ft 334kts
17-Jul-18 19:48 34.867842 -116.369556 224 19917ft 343kts
17-Jul-18 19:49 34.805423 -116.447440 224 19056ft 339kts
17-Jul-18 19:50 34.744028 -116.523723 224 18172ft 336kts
17-Jul-18 19:51 34.683000 -116.599371 224 17389ft 333kts
17-Jul-18 19:52 34.629673 -116.665337 223 16645ft 331kts
17-Jul-18 19:53 34.572305 -116.736155 223 15437ft 325kts
17-Jul-18 19:54 34.519899 -116.800712 223 14333ft 321kts
17-Jul-18 19:55 34.470165 -116.861869 224 13274ft 318kts
17-Jul-18 19:56 34.421083 -116.922119 224 12220ft 312kts
17-Jul-18 19:57 34.366984 -116.988420 224 11953ft 294kts
17-Jul-18 19:58 34.331156 -117.032269 224 11962ft 256kts
17-Jul-18 19:59 34.295251 -117.076099 225 11992ft 255kts
17-Jul-18 20:00 34.256495 -117.117673 199 11666ft 240kts
17-Jul-18 20:01 34.204665 -117.133030 191 10655ft 243kts
17-Jul-18 20:02 34.160727 -117.146095 191 9975ft 238kts
17-Jul-18 20:03 34.092582 -117.166452 191 9007ft 226kts
17-Jul-18 20:04 34.036564 -117.183130 191 7990ft 226kts
17-Jul-18 20:05 33.993143 -117.205575 232 6925ft 220kts
17-Jul-18 20:06 33.996318 -117.264854 292 5671ft 219kts
17-Jul-18 20:07 34.002672 -117.326335 288 4307ft 238kts
17-Jul-18 20:08 34.037438 -117.390437 301 3575ft 212kts
17-Jul-18 20:09 34.053122 -117.431712 255 3215ft 164kts
17-Jul-18 20:10 34.063665 -117.469017 289 2945ft 189kts
17-Jul-18 20:11 34.062446 -117.501450 258 2530ft 139kts
17-Jul-18 20:12 34.058752 -117.531298 260 1848ft 136kts
17-Jul-18 20:13 34.056924 -117.557461 269 1435ft 138kts
17-Jul-18 20:14 34.056934 -117.583025 268 969ft 131kts
17-Jul-18 20:15 34.056950 -117.599639 304 951ft 2kts
17-Jul-18 20:16 34.057776 -117.599708 354 951ft 2kts
17-Jul-18 20:17 34.059894 -117.599388 20 951ft 6kts
17-Jul-18 20:18 34.059984 -117.599359 14 951ft 0kts

Navigation Log

Ident Type
Flight plan parsing failed, navigation log unavailable